Aeroporto :
LOGIN :

Iscrizione | Disclaimer

   EN    FR    IT 

 










Sommario :    VFR   VFR Marginale   IFR   IFR Intensivo   IFR Molto Intensivo
Visibilità : 
Base nubi : 
>= 8 km
>= 3000ft
5 / 8 km
1000 / 3000 ft
1500m / 5 km
500 / 1000 ft
800 / 1500m
200 / 500 ft
< 800m
< 200 ft
Simboli :   Temporali  Nebbia  Neve Forte  Precipitazioni Forti  Vento > 20 kt
SIGMETs :   Varie  Temporali  Ghiacco  Turbolenza  Onda orograficha  Ceneri Vulcaniche







- Altitudine del aeroporto : 13 ft
- Codice IATA : OST


EBOS - Oostend bruges Int.

ULTIMO METAR :
  • 240820Z 16013KT CAVOK 18/10 Q0995 NOSIG

METARs OBSOLETI :
  • 240750Z 15013KT CAVOK 17/10 Q0995 NOSIG
  • 240720Z 15011KT CAVOK 16/11 Q0995 NOSIG
  • 240650Z 15010KT CAVOK 15/10 Q0995 NOSIG
  • 240620Z 14007KT CAVOK 14/10 Q0995 NOSIG
  • 240550Z 14006KT CAVOK 13/10 Q0995 NOSIG

TAF TAF EBOS
Valido dal 24 a 06 ore il 25 a 12 ore UTC


240510Z 2406/2512 16011KT 9999 FEW040
PROB30
TEMPO 2408/2414 18018G32KT
PROB30
TEMPO 2414/2420 18018G32KT 4000 SHRA
PROB40
TEMPO 2506/2512 15020G35KT
Nessun NOTAM noto per questo aeroporto.



MetMap, La meteo Aeronautica in un colpo d'occhio ! - Copyright ORBIFLY Dicembre 2007 - Disclaimer

ORBIFLY MET'MAP TEAM :

Programmazione e sviluppo : Alexandra Zaïnal
Concezione e sviluppo : Baudouin d'Aumeries
Co-Programmazione e sviluppo : Marc-Olivier Méhu
Supporto tecnico e logistico : Manuel Goepfert
Aiuto per la traduzione : Arnaldo La Scala

Contatto : metmap@orbifly.com




FONTI E CREDITI :

   NOAA